Terminal Aerodrome Forecast
Issued by NWS Tulsa, OK

Home | Current Version | Previous Version | Text Only | Print | Product List | Glossary On
Versions: 1 2 3 4 5 6 7 8 9 10 11 12 13 14
000
FTUS44 KTSA 062337
TAFTUL
TAF
KTUL 062337Z 0700/0724 18015KT P6SM BKN050
     FM070400 18010KT 6SM -TSRA BKN040CB
      TEMPO 0704/0708 2SM TSRA BKN015CB
     FM070800 07005KT 4SM -TSRA BKN025CB
     FM071200 04007KT 6SM -SHRA BKN015
     FM071700 04007KT P6SM VCTS OVC025CB=

USA.gov is the U.S. government's official web portal to all federal, state and local government web resources and services.